createdAt,value
2019-03-05T00:01:59.021Z,7.60
2019-03-05T00:04:28.459Z,7.60
2019-03-05T00:06:58.048Z,7.62
2019-03-05T00:09:27.407Z,7.62
2019-03-05T00:12:07.260Z,7.59
2019-03-05T00:14:36.917Z,7.59
2019-03-05T00:17:06.268Z,7.54
2019-03-05T00:19:35.944Z,7.45
2019-03-05T00:22:05.359Z,7.45
2019-03-05T00:25:13.733Z,7.38
2019-03-05T00:27:55.153Z,7.19
2019-03-05T00:34:37.875Z,7.10
2019-03-05T00:41:06.274Z,7.00
2019-03-05T00:47:49.155Z,6.96
2019-03-05T00:54:31.100Z,6.92
2019-03-05T00:57:31.221Z,6.93
2019-03-05T01:00:39.284Z,6.98
2019-03-05T01:03:47.361Z,7.00
2019-03-05T01:06:36.440Z,7.03
2019-03-05T01:09:37.068Z,7.04
2019-03-05T01:17:42.718Z,7.11
2019-03-05T01:23:46.283Z,7.19
2019-03-05T01:26:16.012Z,7.24
2019-03-05T01:28:45.353Z,7.28
2019-03-05T01:37:10.419Z,7.39
2019-03-05T01:39:58.985Z,7.44
2019-03-05T01:42:28.626Z,7.46
2019-03-05T01:45:09.594Z,7.49
2019-03-05T01:47:51.141Z,7.51
2019-03-05T01:50:20.563Z,7.51
2019-03-05T01:52:49.919Z,7.53
2019-03-05T01:55:20.893Z,7.54
2019-03-05T01:58:10.022Z,7.60
2019-03-05T02:00:39.379Z,7.60
2019-03-05T02:03:08.728Z,7.63
2019-03-05T02:05:38.395Z,7.63
2019-03-05T02:08:07.746Z,7.65
2019-03-05T02:10:37.391Z,7.65
2019-03-05T02:13:06.735Z,7.63
2019-03-05T02:15:46.523Z,7.71
2019-03-05T02:18:35.221Z,7.71
2019-03-05T02:21:04.863Z,7.71
2019-03-05T02:27:33.211Z,7.71
2019-03-05T02:30:33.750Z,7.74
2019-03-05T02:33:42.045Z,7.78
2019-03-05T02:40:11.475Z,7.73
2019-03-05T02:43:19.552Z,7.77
2019-03-05T02:46:27.631Z,7.75
2019-03-05T02:49:35.701Z,7.73
2019-03-05T02:52:17.013Z,7.70
2019-03-05T02:54:58.941Z,7.71
2019-03-05T02:57:27.825Z,7.71
2019-03-05T02:59:57.477Z,7.69
2019-03-05T03:05:44.006Z,7.76
2019-03-05T03:08:13.652Z,7.76
2019-03-05T03:10:43.014Z,7.80
2019-03-05T03:13:12.841Z,7.83
2019-03-05T03:15:42.221Z,7.81
2019-03-05T03:18:11.617Z,7.82
2019-03-05T03:20:40.972Z,7.82
2019-03-05T03:23:11.012Z,7.81
2019-03-05T03:28:53.842Z,7.77
2019-03-05T03:31:23.804Z,7.79
2019-03-05T03:33:53.164Z,7.79
2019-03-05T03:36:34.952Z,7.71
2019-03-05T03:42:24.146Z,7.65
2019-03-05T03:44:53.684Z,7.58
2019-03-05T03:47:23.020Z,7.58
2019-03-05T03:49:52.385Z,7.56
2019-03-05T03:52:22.020Z,7.54
2019-03-05T03:54:51.674Z,7.55
2019-03-05T03:57:21.269Z,7.52
2019-03-05T04:00:29.453Z,7.50
2019-03-05T04:02:58.793Z,7.50
2019-03-05T04:05:28.451Z,7.51
2019-03-05T04:07:58.191Z,7.45
2019-03-05T04:10:29.234Z,7.45
2019-03-05T04:12:59.224Z,7.42
2019-03-05T04:15:28.751Z,7.42
2019-03-05T04:17:58.095Z,7.40
2019-03-05T04:23:23.954Z,7.35
2019-03-05T04:25:53.316Z,7.29
2019-03-05T04:28:34.231Z,7.31
2019-03-05T04:31:23.256Z,7.29
2019-03-05T04:33:52.822Z,7.27
2019-03-05T04:36:22.170Z,7.27
2019-03-05T04:38:51.508Z,7.30
2019-03-05T04:41:21.020Z,7.30
2019-03-05T04:43:50.634Z,7.25
2019-03-05T04:46:39.417Z,7.21
2019-03-05T04:49:28.035Z,7.22
2019-03-05T04:54:52.917Z,7.18
2019-03-05T04:57:22.571Z,7.18
2019-03-05T04:59:52.050Z,7.19
2019-03-05T05:02:21.415Z,7.19
2019-03-05T05:04:51.013Z,7.22
2019-03-05T05:07:20.427Z,7.20
2019-03-05T05:09:49.928Z,7.18
2019-03-05T05:12:19.312Z,7.16
2019-03-05T05:14:48.661Z,7.14
2019-03-05T05:17:18.529Z,7.14
2019-03-05T05:19:48.024Z,7.11
2019-03-05T05:22:17.390Z,7.11
2019-03-05T05:24:47.012Z,7.08
2019-03-05T05:27:18.279Z,7.03
2019-03-05T05:29:47.636Z,6.99
2019-03-05T05:32:17.615Z,6.97
2019-03-05T05:34:47.017Z,6.93
2019-03-05T05:37:27.373Z,6.90
2019-03-05T05:40:26.525Z,6.85
2019-03-05T05:42:56.169Z,6.72
2019-03-05T05:48:46.296Z,6.69
2019-03-05T05:51:15.664Z,6.67
2019-03-05T05:53:45.222Z,6.66
2019-03-05T05:56:14.582Z,6.63
2019-03-05T05:58:44.151Z,6.62
2019-03-05T06:03:54.148Z,6.70
2019-03-05T06:06:23.496Z,6.69
2019-03-05T06:08:52.861Z,6.66
2019-03-05T06:11:22.519Z,6.60
2019-03-05T06:13:52.232Z,6.58
2019-03-05T06:16:21.921Z,6.57
2019-03-05T06:18:51.287Z,6.55
2019-03-05T06:21:20.935Z,6.55
2019-03-05T06:23:50.370Z,6.55
2019-03-05T06:26:19.718Z,6.52
2019-03-05T06:28:49.339Z,6.52
2019-03-05T06:31:18.686Z,6.50
2019-03-05T06:33:48.263Z,6.47
2019-03-05T06:36:17.612Z,6.51
2019-03-05T06:38:46.975Z,6.55
2019-03-05T06:41:16.532Z,6.60
2019-03-05T06:43:45.899Z,6.66
2019-03-05T06:46:15.561Z,6.69
2019-03-05T06:48:46.536Z,6.72
2019-03-05T06:51:17.892Z,6.78
2019-03-05T06:53:47.419Z,6.83
2019-03-05T06:56:16.768Z,6.87
2019-03-05T06:58:46.709Z,6.88
2019-03-05T07:01:28.316Z,6.89
2019-03-05T07:03:57.672Z,6.89
2019-03-05T07:06:46.647Z,6.90
2019-03-05T07:13:21.604Z,6.91
2019-03-05T07:19:11.861Z,6.91
2019-03-05T07:21:53.363Z,6.91
2019-03-05T07:27:43.507Z,6.89
2019-03-05T07:33:59.556Z,6.86
2019-03-05T07:36:28.908Z,6.86
2019-03-05T07:38:58.602Z,6.88
2019-03-05T07:41:27.945Z,6.93
2019-03-05T07:44:09.560Z,7.10
2019-03-05T07:53:41.725Z,7.30
2019-03-05T07:56:11.883Z,7.20
2019-03-05T07:58:41.539Z,7.06
2019-03-05T08:01:21.792Z,6.92
2019-03-05T08:03:48.976Z,6.80
2019-03-05T08:06:18.625Z,6.73
2019-03-05T08:09:26.719Z,6.71
2019-03-05T08:15:46.645Z,6.89
2019-03-05T08:18:16.005Z,7.01
2019-03-05T08:20:57.881Z,7.19
2019-03-05T08:23:27.247Z,7.19
2019-03-05T08:26:16.159Z,7.45
2019-03-05T08:28:57.982Z,7.61
2019-03-05T08:31:27.332Z,7.61
2019-03-05T08:33:56.695Z,7.68
2019-03-05T08:36:26.284Z,7.66
2019-03-05T08:39:15.157Z,7.48
2019-03-05T08:41:44.800Z,7.48
2019-03-05T08:44:24.177Z,7.21
2019-03-05T08:46:53.581Z,7.21
2019-03-05T08:52:17.949Z,6.98
2019-03-05T08:54:47.310Z,6.78
2019-03-05T08:57:16.954Z,6.72
2019-03-05T08:59:46.329Z,6.80
2019-03-05T09:02:16.233Z,6.89
2019-03-05T09:04:45.595Z,6.91
2019-03-05T09:07:15.349Z,7.05
2019-03-05T09:09:46.644Z,7.79
2019-03-05T09:12:16.195Z,7.79
2019-03-05T09:14:45.846Z,8.04
2019-03-05T09:17:15.476Z,7.99
2019-03-05T09:19:57.252Z,8.27
2019-03-05T09:22:27.573Z,8.27
2019-03-05T09:24:57.066Z,8.24
2019-03-05T09:27:26.406Z,8.24
2019-03-05T09:29:55.989Z,8.08
2019-03-05T09:32:25.627Z,8.08
2019-03-05T09:35:25.938Z,8.06
2019-03-05T09:37:55.284Z,8.06
2019-03-05T09:43:59.242Z,8.37
2019-03-05T09:46:29.176Z,8.37
2019-03-05T09:48:58.567Z,8.40
2019-03-05T09:51:29.528Z,8.43
2019-03-05T09:54:11.262Z,8.36
2019-03-05T09:56:40.897Z,8.36
2019-03-05T10:01:58.987Z,8.30
2019-03-05T10:04:28.646Z,8.20
2019-03-05T10:07:18.331Z,7.98
2019-03-05T10:09:39.172Z,7.83
2019-03-05T10:12:08.510Z,7.83
2019-03-05T10:14:50.168Z,7.46
2019-03-05T10:17:19.514Z,7.46
2019-03-05T10:19:49.388Z,7.02
2019-03-05T10:22:20.401Z,7.02
2019-03-05T10:28:08.728Z,7.07
2019-03-05T10:34:12.524Z,8.32
2019-03-05T10:36:42.471Z,8.93
2019-03-05T10:39:31.951Z,9.29
2019-03-05T10:42:01.414Z,9.66
2019-03-05T10:44:30.780Z,9.68
2019-03-05T10:47:00.228Z,9.50
2019-03-05T10:49:29.888Z,9.28
2019-03-05T10:51:59.321Z,9.14
2019-03-05T10:54:28.944Z,9.22
2019-03-05T10:57:19.560Z,9.60
2019-03-05T10:59:49.232Z,9.60
2019-03-05T11:02:49.225Z,9.76
2019-03-05T11:05:18.632Z,9.94
2019-03-05T11:07:48.265Z,10.10
2019-03-05T11:13:52.437Z,10.40
2019-03-05T11:16:30.487Z,10.43
2019-03-05T11:19:23.819Z,10.59
2019-03-05T11:21:53.825Z,10.47
2019-03-05T11:24:23.413Z,10.25
2019-03-05T11:26:52.757Z,10.10
2019-03-05T11:29:22.466Z,10.12
2019-03-05T11:31:51.832Z,10.14
2019-03-05T11:34:21.493Z,9.97
2019-03-05T11:39:51.004Z,9.78
2019-03-05T11:42:20.888Z,9.64
2019-03-05T11:45:30.204Z,9.53
2019-03-05T11:47:59.609Z,9.38
2019-03-05T11:50:31.152Z,9.40
2019-03-05T11:53:00.603Z,9.44
2019-03-05T11:58:50.919Z,9.49
2019-03-05T12:04:16.116Z,9.45
2019-03-05T12:06:45.556Z,9.51
2019-03-05T12:09:14.973Z,9.79
2019-03-05T12:11:44.535Z,10.04
2019-03-05T12:14:14.174Z,10.15
2019-03-05T12:16:43.837Z,10.15
2019-03-05T12:19:13.276Z,10.02
2019-03-05T12:21:42.864Z,9.85
2019-03-05T12:24:14.120Z,9.79
2019-03-05T12:26:43.760Z,9.78
2019-03-05T12:29:13.136Z,9.77
2019-03-05T12:31:42.785Z,9.84
2019-03-05T12:34:13.212Z,9.83
2019-03-05T12:36:42.859Z,9.80
2019-03-05T12:42:33.775Z,9.81
2019-03-05T12:48:40.259Z,9.89
2019-03-05T12:51:14.187Z,10.06
2019-03-05T12:53:43.829Z,10.11
2019-03-05T12:56:23.453Z,10.02
2019-03-05T12:58:50.228Z,9.88
2019-03-05T13:01:19.877Z,9.81
2019-03-05T13:03:49.237Z,9.93
2019-03-05T13:06:19.082Z,9.93
2019-03-05T13:08:48.446Z,9.82
2019-03-05T13:11:18.364Z,9.59
2019-03-05T13:13:51.376Z,9.59
2019-03-05T13:16:27.817Z,9.68
2019-03-05T13:18:58.329Z,10.04
2019-03-05T13:21:48.485Z,10.25
2019-03-05T13:24:27.155Z,10.57
2019-03-05T13:26:56.531Z,10.97
2019-03-05T13:29:26.200Z,10.97
2019-03-05T13:31:55.555Z,10.92
2019-03-05T13:34:25.271Z,10.80
2019-03-05T13:36:54.953Z,10.63
2019-03-05T13:39:24.466Z,10.74
2019-03-05T13:41:55.006Z,10.90
2019-03-05T13:44:34.267Z,10.79
2019-03-05T13:47:14.673Z,10.43
2019-03-05T13:50:15.201Z,10.13
2019-03-05T13:53:25.142Z,9.97
2019-03-05T13:59:48.038Z,9.81
2019-03-05T14:02:53.015Z,10.03
2019-03-05T14:05:58.341Z,10.45
2019-03-05T14:09:08.982Z,11.12
2019-03-05T14:18:25.231Z,11.66
2019-03-05T14:20:55.258Z,11.78
2019-03-05T14:23:44.542Z,11.89
2019-03-05T14:26:14.266Z,12.10
2019-03-05T14:28:43.604Z,12.21
2019-03-05T14:31:13.552Z,12.21
2019-03-05T14:33:43.202Z,12.27
2019-03-05T14:36:13.866Z,12.24
2019-03-05T14:38:43.241Z,12.18
2019-03-05T14:41:13.459Z,11.90
2019-03-05T14:43:43.105Z,11.62
2019-03-05T14:46:13.566Z,11.28
2019-03-05T14:48:43.131Z,11.18
2019-03-05T14:51:13.577Z,11.31
2019-03-05T14:53:43.191Z,11.51
2019-03-05T14:56:13.535Z,11.56
2019-03-05T14:58:43.249Z,11.43
2019-03-05T15:01:13.661Z,11.28
2019-03-05T15:03:43.304Z,11.11
2019-03-05T15:06:13.704Z,11.18
2019-03-05T15:08:43.318Z,11.25
2019-03-05T15:11:33.000Z,11.00
2019-03-05T15:14:02.588Z,11.00
2019-03-05T15:16:32.375Z,10.88
2019-03-05T15:19:01.741Z,10.74
2019-03-05T15:21:31.276Z,10.69
2019-03-05T15:24:00.635Z,10.74
2019-03-05T15:26:30.923Z,10.77
2019-03-05T15:29:00.483Z,10.82
2019-03-05T15:31:29.876Z,11.05
2019-03-05T15:33:59.660Z,11.21
2019-03-05T15:36:29.350Z,11.34
2019-03-05T15:38:58.725Z,11.40
2019-03-05T15:41:28.665Z,11.34
2019-03-05T15:43:58.001Z,11.22
2019-03-05T15:46:27.692Z,11.31
2019-03-05T15:48:57.366Z,11.28
2019-03-05T15:51:27.005Z,11.17
2019-03-05T15:53:56.458Z,11.00
2019-03-05T15:56:26.158Z,10.78
2019-03-05T15:58:55.616Z,10.67
2019-03-05T16:01:25.051Z,10.57
2019-03-05T16:03:54.408Z,10.54
2019-03-05T16:06:23.765Z,10.51
2019-03-05T16:08:53.433Z,10.47
2019-03-05T16:11:23.118Z,10.42
2019-03-05T16:13:56.561Z,10.38
2019-03-05T16:16:29.483Z,10.37
2019-03-05T16:18:58.917Z,10.36
2019-03-05T16:21:28.588Z,10.39
2019-03-05T16:24:01.746Z,10.35
2019-03-05T16:26:56.770Z,10.33
2019-03-05T16:29:55.783Z,10.33
2019-03-05T16:32:48.833Z,10.33
2019-03-05T16:35:37.646Z,10.30
2019-03-05T16:44:21.864Z,10.33
2019-03-05T16:47:10.663Z,10.36
2019-03-05T16:49:59.153Z,10.34
2019-03-05T17:01:56.259Z,10.11
2019-03-05T17:04:45.057Z,10.08
2019-03-05T17:07:33.921Z,10.08
2019-03-05T17:12:41.820Z,9.96
2019-03-05T17:15:11.245Z,9.89
2019-03-05T17:17:40.731Z,9.87
2019-03-05T17:23:30.837Z,9.81
2019-03-05T17:26:00.265Z,9.77
2019-03-05T17:28:30.297Z,9.74
2019-03-05T17:31:20.993Z,9.72
2019-03-05T17:33:50.352Z,9.71
2019-03-05T17:36:20.039Z,9.67
2019-03-05T17:38:49.855Z,9.66
2019-03-05T17:41:19.281Z,9.59
2019-03-05T17:43:59.749Z,9.54
2019-03-05T17:46:29.093Z,9.49
2019-03-05T17:48:58.821Z,9.44
2019-03-05T17:51:28.188Z,9.40
2019-03-05T17:53:57.787Z,9.33
2019-03-05T17:56:27.167Z,9.26
2019-03-05T17:58:56.854Z,9.23
2019-03-05T18:01:45.880Z,9.11
2019-03-05T18:04:15.594Z,9.11
2019-03-05T18:06:54.821Z,9.05
2019-03-05T18:09:24.190Z,9.05
2019-03-05T18:11:54.327Z,9.03
2019-03-05T18:14:25.483Z,9.01
2019-03-05T18:16:55.315Z,8.96
2019-03-05T18:19:25.143Z,8.96
2019-03-05T18:21:54.577Z,8.93
2019-03-05T18:24:24.088Z,8.90
2019-03-05T18:26:53.529Z,8.90
2019-03-05T18:29:23.246Z,8.84
2019-03-05T18:31:53.116Z,8.76
2019-03-05T18:34:22.435Z,8.76
2019-03-05T18:37:04.367Z,8.73
2019-03-05T18:39:34.092Z,8.63
2019-03-05T18:42:03.516Z,8.63
2019-03-05T18:44:33.069Z,8.63
2019-03-05T18:47:02.503Z,8.57
2019-03-05T18:49:33.715Z,8.54
2019-03-05T18:52:04.773Z,8.47
2019-03-05T18:54:34.192Z,8.40
2019-03-05T18:57:03.550Z,8.40
2019-03-05T18:59:33.056Z,8.39
2019-03-05T19:02:10.118Z,8.37
2019-03-05T19:04:39.482Z,8.37
2019-03-05T19:07:09.148Z,8.32
2019-03-05T19:09:38.497Z,8.23
2019-03-05T19:12:18.864Z,8.16
2019-03-05T19:15:21.359Z,8.14
2019-03-05T19:17:51.324Z,8.14
2019-03-05T19:23:41.559Z,8.09
2019-03-05T19:26:11.344Z,8.02
2019-03-05T19:28:40.724Z,7.98
2019-03-05T19:31:49.009Z,7.91
2019-03-05T19:34:18.477Z,7.91
2019-03-05T19:36:48.131Z,7.84
2019-03-05T19:39:17.811Z,7.77
2019-03-05T19:41:55.823Z,7.71
2019-03-05T19:44:24.328Z,7.71
2019-03-05T19:46:53.967Z,7.67
2019-03-05T19:49:23.719Z,7.62
2019-03-05T19:51:53.253Z,7.59
2019-03-05T19:54:22.621Z,7.56
2019-03-05T19:56:52.277Z,7.52
2019-03-05T19:59:21.631Z,7.49
2019-03-05T20:02:10.695Z,7.50
2019-03-05T20:04:40.311Z,7.50
2019-03-05T20:07:09.692Z,7.67
2019-03-05T20:09:51.347Z,7.96
2019-03-05T20:12:21.010Z,7.96
2019-03-05T20:14:50.377Z,7.96
2019-03-05T20:17:19.779Z,7.91
2019-03-05T20:20:19.785Z,7.83
2019-03-05T20:22:49.456Z,7.83
2019-03-05T20:29:06.978Z,7.70
2019-03-05T20:31:36.379Z,7.67
2019-03-05T20:34:05.743Z,7.67
2019-03-05T20:36:35.381Z,7.66
2019-03-05T20:39:35.215Z,7.64
2019-03-05T20:42:24.279Z,7.59
2019-03-05T20:44:53.884Z,7.58
2019-03-05T20:47:23.835Z,7.56
2019-03-05T20:49:53.476Z,7.54
2019-03-05T20:52:22.875Z,7.55
2019-03-05T20:54:53.851Z,7.54
2019-03-05T20:57:23.533Z,7.50
2019-03-05T20:59:52.894Z,7.49
2019-03-05T21:02:22.797Z,7.45
2019-03-05T21:04:52.153Z,7.40
2019-03-05T21:07:21.868Z,7.68
2019-03-05T21:09:51.565Z,7.78
2019-03-05T21:12:20.959Z,7.78
2019-03-05T21:14:51.915Z,7.66
2019-03-05T21:17:21.581Z,7.51
2019-03-05T21:19:50.943Z,7.37
2019-03-05T21:22:20.596Z,7.28
2019-03-05T21:24:50.301Z,7.19
2019-03-05T21:27:19.946Z,7.11
2019-03-05T21:29:49.612Z,7.04
2019-03-05T21:32:26.100Z,7.03
2019-03-05T21:34:57.164Z,7.00
2019-03-05T21:37:39.831Z,6.97
2019-03-05T21:40:29.622Z,6.95
2019-03-05T21:42:59.049Z,6.89
2019-03-05T21:45:41.385Z,6.84
2019-03-05T21:48:23.402Z,6.78
2019-03-05T21:51:05.013Z,6.78
2019-03-05T21:53:46.856Z,6.75
2019-03-05T21:56:29.307Z,6.71
2019-03-05T21:59:10.886Z,6.68
2019-03-05T22:01:40.266Z,6.65
2019-03-05T22:04:09.730Z,6.60
2019-03-05T22:06:39.108Z,6.56
2019-03-05T22:09:08.760Z,6.50
2019-03-05T22:11:39.926Z,6.45
2019-03-05T22:14:09.289Z,6.37
2019-03-05T22:16:38.858Z,6.43
2019-03-05T22:19:08.512Z,6.43
2019-03-05T22:21:38.216Z,6.43
2019-03-05T22:24:07.919Z,6.45
2019-03-05T22:26:37.318Z,6.45
2019-03-05T22:31:47.197Z,6.46
2019-03-05T22:34:17.422Z,6.47
2019-03-05T22:36:47.004Z,6.51
2019-03-05T22:39:16.362Z,6.51
2019-03-05T22:41:56.016Z,6.50
2019-03-05T22:44:25.821Z,6.50
2019-03-05T22:46:55.498Z,6.49
2019-03-05T22:49:25.259Z,6.47
2019-03-05T22:51:54.966Z,6.48
2019-03-05T22:54:24.529Z,6.48
2019-03-05T22:56:55.352Z,6.45
2019-03-05T22:59:43.436Z,6.45
2019-03-05T23:04:53.086Z,6.44
2019-03-05T23:07:22.761Z,6.41
2019-03-05T23:10:02.338Z,6.33
2019-03-05T23:12:33.371Z,6.33
2019-03-05T23:18:02.913Z,6.33
2019-03-05T23:20:34.059Z,6.32
2019-03-05T23:23:05.589Z,6.34
2019-03-05T23:25:35.229Z,6.36
2019-03-05T23:28:44.630Z,6.35
2019-03-05T23:31:15.457Z,6.36
2019-03-05T23:33:45.152Z,6.32
2019-03-05T23:36:15.467Z,6.28
2019-03-05T23:38:45.156Z,6.25
2019-03-05T23:41:15.486Z,6.24
2019-03-05T23:43:45.149Z,6.18
2019-03-05T23:46:15.613Z,6.16
2019-03-05T23:48:45.122Z,6.13
2019-03-05T23:51:15.454Z,6.11
2019-03-05T23:53:45.154Z,6.09
2019-03-05T23:56:15.485Z,6.06
2019-03-05T23:58:45.129Z,6.04
